sensor_id;sensor_type;location;lat;lon;timestamp;P1;durP1;ratioP1;P2;durP2;ratioP2
56581;SDS011;42463;52.214;21.238;2023-08-06T00:00:09;24.40;;;14.20;;
56581;SDS011;42463;52.214;21.238;2023-08-06T00:02:38;24.50;;;14.50;;
56581;SDS011;42463;52.214;21.238;2023-08-06T00:04:43;26.50;;;14.20;;
56581;SDS011;42463;52.214;21.238;2023-08-06T00:06:49;26.10;;;14.60;;
56581;SDS011;42463;52.214;21.238;2023-08-06T00:08:55;21.00;;;13.50;;
56581;SDS011;42463;52.214;21.238;2023-08-06T00:11:00;22.60;;;13.50;;
56581;SDS011;42463;52.214;21.238;2023-08-06T00:13:06;23.90;;;14.00;;
56581;SDS011;42463;52.214;21.238;2023-08-06T00:15:12;20.10;;;12.90;;
56581;SDS011;42463;52.214;21.238;2023-08-06T00:17:18;26.50;;;14.40;;
56581;SDS011;42463;52.214;21.238;2023-08-06T00:19:24;24.90;;;13.80;;
56581;SDS011;42463;52.214;21.238;2023-08-06T00:21:29;21.80;;;13.30;;
56581;SDS011;42463;52.214;21.238;2023-08-06T00:23:35;22.60;;;12.70;;
56581;SDS011;42463;52.214;21.238;2023-08-06T00:25:40;20.70;;;12.70;;
56581;SDS011;42463;52.214;21.238;2023-08-06T00:27:46;26.10;;;13.70;;
56581;SDS011;42463;52.214;21.238;2023-08-06T00:29:53;23.00;;;13.80;;
56581;SDS011;42463;52.214;21.238;2023-08-06T00:31:59;18.50;;;13.50;;
56581;SDS011;42463;52.214;21.238;2023-08-06T00:34:04;20.80;;;12.80;;
56581;SDS011;42463;52.214;21.238;2023-08-06T00:36:09;20.90;;;13.10;;
56581;SDS011;42463;52.214;21.238;2023-08-06T00:38:15;18.50;;;13.10;;
56581;SDS011;42463;52.214;21.238;2023-08-06T00:40:21;19.70;;;13.40;;
56581;SDS011;42463;52.214;21.238;2023-08-06T00:42:26;19.40;;;13.40;;
56581;SDS011;42463;52.214;21.238;2023-08-06T00:44:33;19.20;;;13.20;;
56581;SDS011;42463;52.214;21.238;2023-08-06T00:46:39;21.30;;;13.20;;
56581;SDS011;42463;52.214;21.238;2023-08-06T00:48:47;21.40;;;13.70;;
56581;SDS011;42463;52.214;21.238;2023-08-06T00:50:54;22.10;;;13.10;;
56581;SDS011;42463;52.214;21.238;2023-08-06T00:53:01;21.20;;;12.90;;
56581;SDS011;42463;52.214;21.238;2023-08-06T00:55:08;18.60;;;12.60;;
56581;SDS011;42463;52.214;21.238;2023-08-06T00:57:14;19.60;;;13.80;;
56581;SDS011;42463;52.214;21.238;2023-08-06T00:59:21;23.00;;;13.50;;
56581;SDS011;42463;52.214;21.238;2023-08-06T01:03:57;19.90;;;13.50;;
56581;SDS011;42463;52.214;21.238;2023-08-06T01:06:03;18.50;;;12.70;;
56581;SDS011;42463;52.214;21.238;2023-08-06T01:08:19;22.50;;;14.10;;
56581;SDS011;42463;52.214;21.238;2023-08-06T01:10:40;20.60;;;13.70;;
56581;SDS011;42463;52.214;21.238;2023-08-06T01:13:00;18.40;;;13.00;;
56581;SDS011;42463;52.214;21.238;2023-08-06T01:15:16;18.20;;;13.40;;
56581;SDS011;42463;52.214;21.238;2023-08-06T01:17:25;17.90;;;12.20;;
56581;SDS011;42463;52.214;21.238;2023-08-06T01:19:32;20.10;;;12.60;;
56581;SDS011;42463;52.214;21.238;2023-08-06T01:21:37;16.80;;;12.40;;
56581;SDS011;42463;52.214;21.238;2023-08-06T01:23:44;15.10;;;11.70;;
56581;SDS011;42463;52.214;21.238;2023-08-06T01:25:53;16.30;;;11.90;;
56581;SDS011;42463;52.214;21.238;2023-08-06T01:28:07;16.10;;;11.90;;
56581;SDS011;42463;52.214;21.238;2023-08-06T01:30:20;16.30;;;11.60;;
56581;SDS011;42463;52.214;21.238;2023-08-06T01:32:30;15.10;;;10.60;;
56581;SDS011;42463;52.214;21.238;2023-08-06T01:34:39;14.50;;;11.00;;
56581;SDS011;42463;52.214;21.238;2023-08-06T01:36:51;14.40;;;11.00;;
56581;SDS011;42463;52.214;21.238;2023-08-06T01:38:57;12.10;;;10.00;;
56581;SDS011;42463;52.214;21.238;2023-08-06T01:41:03;12.50;;;10.00;;
56581;SDS011;42463;52.214;21.238;2023-08-06T01:43:12;13.00;;;10.60;;
56581;SDS011;42463;52.214;21.238;2023-08-06T01:45:17;11.80;;;9.40;;
56581;SDS011;42463;52.214;21.238;2023-08-06T01:47:23;13.10;;;10.00;;
56581;SDS011;42463;52.214;21.238;2023-08-06T01:49:28;12.40;;;9.10;;
56581;SDS011;42463;52.214;21.238;2023-08-06T01:51:34;12.80;;;10.00;;
56581;SDS011;42463;52.214;21.238;2023-08-06T01:53:40;13.50;;;9.40;;
56581;SDS011;42463;52.214;21.238;2023-08-06T01:55:48;13.10;;;9.60;;
56581;SDS011;42463;52.214;21.238;2023-08-06T01:57:54;13.00;;;9.80;;
56581;SDS011;42463;52.214;21.238;2023-08-06T02:00:00;12.70;;;10.00;;
56581;SDS011;42463;52.214;21.238;2023-08-06T02:02:15;13.00;;;9.90;;
56581;SDS011;42463;52.214;21.238;2023-08-06T02:04:21;14.30;;;10.10;;
56581;SDS011;42463;52.214;21.238;2023-08-06T02:06:27;11.80;;;9.70;;
56581;SDS011;42463;52.214;21.238;2023-08-06T02:08:33;12.60;;;10.20;;
56581;SDS011;42463;52.214;21.238;2023-08-06T02:10:38;12.00;;;10.20;;
56581;SDS011;42463;52.214;21.238;2023-08-06T02:12:44;15.20;;;10.80;;
56581;SDS011;42463;52.214;21.238;2023-08-06T02:14:50;14.10;;;10.20;;
56581;SDS011;42463;52.214;21.238;2023-08-06T02:16:55;13.70;;;10.30;;
56581;SDS011;42463;52.214;21.238;2023-08-06T02:19:02;13.20;;;10.70;;
56581;SDS011;42463;52.214;21.238;2023-08-06T02:21:07;14.30;;;10.40;;
56581;SDS011;42463;52.214;21.238;2023-08-06T02:23:13;14.20;;;11.20;;
56581;SDS011;42463;52.214;21.238;2023-08-06T02:25:21;12.60;;;10.30;;
56581;SDS011;42463;52.214;21.238;2023-08-06T02:27:27;14.60;;;10.90;;
56581;SDS011;42463;52.214;21.238;2023-08-06T02:29:33;14.90;;;11.10;;
56581;SDS011;42463;52.214;21.238;2023-08-06T02:31:38;14.70;;;10.50;;
56581;SDS011;42463;52.214;21.238;2023-08-06T02:33:44;14.20;;;11.00;;
56581;SDS011;42463;52.214;21.238;2023-08-06T02:35:49;14.80;;;11.20;;
56581;SDS011;42463;52.214;21.238;2023-08-06T02:37:55;15.70;;;11.90;;
56581;SDS011;42463;52.214;21.238;2023-08-06T02:40:00;14.20;;;11.10;;
56581;SDS011;42463;52.214;21.238;2023-08-06T02:42:07;14.30;;;11.00;;
56581;SDS011;42463;52.214;21.238;2023-08-06T02:44:14;13.80;;;10.60;;
56581;SDS011;42463;52.214;21.238;2023-08-06T02:46:20;14.40;;;11.40;;
56581;SDS011;42463;52.214;21.238;2023-08-06T02:48:26;16.00;;;11.30;;
56581;SDS011;42463;52.214;21.238;2023-08-06T02:50:35;16.70;;;12.10;;
56581;SDS011;42463;52.214;21.238;2023-08-06T02:52:43;16.30;;;12.90;;
56581;SDS011;42463;52.214;21.238;2023-08-06T02:54:49;15.20;;;11.70;;
56581;SDS011;42463;52.214;21.238;2023-08-06T02:56:55;17.40;;;12.50;;
56581;SDS011;42463;52.214;21.238;2023-08-06T02:59:09;17.50;;;12.50;;
56581;SDS011;42463;52.214;21.238;2023-08-06T03:01:31;17.50;;;12.50;;
56581;SDS011;42463;52.214;21.238;2023-08-06T03:03:42;17.70;;;12.40;;
56581;SDS011;42463;52.214;21.238;2023-08-06T03:05:52;18.20;;;13.10;;
56581;SDS011;42463;52.214;21.238;2023-08-06T03:08:05;17.00;;;12.10;;
56581;SDS011;42463;52.214;21.238;2023-08-06T03:10:12;18.40;;;12.80;;
56581;SDS011;42463;52.214;21.238;2023-08-06T03:12:19;16.80;;;12.70;;
56581;SDS011;42463;52.214;21.238;2023-08-06T03:14:25;18.70;;;12.80;;
56581;SDS011;42463;52.214;21.238;2023-08-06T03:16:31;17.10;;;12.70;;
56581;SDS011;42463;52.214;21.238;2023-08-06T03:18:37;18.10;;;13.50;;
56581;SDS011;42463;52.214;21.238;2023-08-06T03:20:44;20.40;;;13.60;;
56581;SDS011;42463;52.214;21.238;2023-08-06T03:22:50;17.20;;;12.30;;
56581;SDS011;42463;52.214;21.238;2023-08-06T03:24:57;22.00;;;13.40;;
56581;SDS011;42463;52.214;21.238;2023-08-06T03:27:03;18.30;;;13.00;;
56581;SDS011;42463;52.214;21.238;2023-08-06T03:29:10;18.70;;;13.20;;
56581;SDS011;42463;52.214;21.238;2023-08-06T03:31:16;19.60;;;13.60;;
56581;SDS011;42463;52.214;21.238;2023-08-06T03:33:22;17.40;;;13.30;;
56581;SDS011;42463;52.214;21.238;2023-08-06T03:35:27;21.10;;;14.70;;
56581;SDS011;42463;52.214;21.238;2023-08-06T03:37:34;19.00;;;14.10;;
56581;SDS011;42463;52.214;21.238;2023-08-06T03:39:40;20.00;;;14.50;;
56581;SDS011;42463;52.214;21.238;2023-08-06T03:41:46;20.00;;;14.60;;
56581;SDS011;42463;52.214;21.238;2023-08-06T03:43:52;20.70;;;14.70;;
56581;SDS011;42463;52.214;21.238;2023-08-06T03:46:01;19.50;;;14.70;;
56581;SDS011;42463;52.214;21.238;2023-08-06T03:48:06;18.50;;;14.10;;
56581;SDS011;42463;52.214;21.238;2023-08-06T03:50:13;20.70;;;14.90;;
56581;SDS011;42463;52.214;21.238;2023-08-06T03:52:18;22.20;;;15.90;;
56581;SDS011;42463;52.214;21.238;2023-08-06T03:54:24;20.20;;;15.90;;
56581;SDS011;42463;52.214;21.238;2023-08-06T03:56:29;21.70;;;15.70;;
56581;SDS011;42463;52.214;21.238;2023-08-06T03:58:36;23.80;;;16.50;;
56581;SDS011;42463;52.214;21.238;2023-08-06T04:00:41;24.00;;;16.70;;
56581;SDS011;42463;52.214;21.238;2023-08-06T04:02:47;22.60;;;16.00;;
56581;SDS011;42463;52.214;21.238;2023-08-06T04:04:53;21.20;;;15.90;;
56581;SDS011;42463;52.214;21.238;2023-08-06T04:06:58;22.80;;;17.00;;
56581;SDS011;42463;52.214;21.238;2023-08-06T04:09:04;19.60;;;14.60;;
56581;SDS011;42463;52.214;21.238;2023-08-06T04:11:09;20.30;;;16.10;;
56581;SDS011;42463;52.214;21.238;2023-08-06T04:13:18;21.30;;;16.20;;
56581;SDS011;42463;52.214;21.238;2023-08-06T04:15:24;19.50;;;15.80;;
56581;SDS011;42463;52.214;21.238;2023-08-06T04:17:29;21.80;;;16.70;;
56581;SDS011;42463;52.214;21.238;2023-08-06T04:19:36;21.50;;;16.10;;
56581;SDS011;42463;52.214;21.238;2023-08-06T04:21:41;20.10;;;16.20;;
56581;SDS011;42463;52.214;21.238;2023-08-06T04:23:47;22.20;;;16.40;;
56581;SDS011;42463;52.214;21.238;2023-08-06T04:25:57;20.10;;;16.00;;
56581;SDS011;42463;52.214;21.238;2023-08-06T04:28:06;20.00;;;15.90;;
56581;SDS011;42463;52.214;21.238;2023-08-06T04:30:12;21.30;;;16.10;;
56581;SDS011;42463;52.214;21.238;2023-08-06T04:32:18;21.90;;;16.70;;
56581;SDS011;42463;52.214;21.238;2023-08-06T04:34:27;21.10;;;16.50;;
56581;SDS011;42463;52.214;21.238;2023-08-06T04:36:33;26.20;;;17.00;;
56581;SDS011;42463;52.214;21.238;2023-08-06T04:38:38;22.80;;;16.50;;
56581;SDS011;42463;52.214;21.238;2023-08-06T04:40:47;22.00;;;16.20;;
56581;SDS011;42463;52.214;21.238;2023-08-06T04:42:54;19.60;;;15.90;;
56581;SDS011;42463;52.214;21.238;2023-08-06T04:45:00;19.60;;;16.80;;
56581;SDS011;42463;52.214;21.238;2023-08-06T04:47:06;19.20;;;15.80;;
56581;SDS011;42463;52.214;21.238;2023-08-06T04:49:12;21.90;;;16.00;;
56581;SDS011;42463;52.214;21.238;2023-08-06T04:51:17;23.80;;;16.00;;
56581;SDS011;42463;52.214;21.238;2023-08-06T04:53:23;20.70;;;16.60;;
56581;SDS011;42463;52.214;21.238;2023-08-06T04:55:28;19.20;;;15.60;;
56581;SDS011;42463;52.214;21.238;2023-08-06T04:57:34;17.80;;;15.50;;
56581;SDS011;42463;52.214;21.238;2023-08-06T04:59:40;18.30;;;14.00;;
56581;SDS011;42463;52.214;21.238;2023-08-06T05:01:45;19.20;;;16.10;;
56581;SDS011;42463;52.214;21.238;2023-08-06T05:03:51;17.90;;;15.40;;
56581;SDS011;42463;52.214;21.238;2023-08-06T05:05:56;19.20;;;16.10;;
56581;SDS011;42463;52.214;21.238;2023-08-06T05:08:02;17.30;;;15.30;;
56581;SDS011;42463;52.214;21.238;2023-08-06T05:10:08;19.20;;;15.20;;
56581;SDS011;42463;52.214;21.238;2023-08-06T05:12:14;17.00;;;14.90;;
56581;SDS011;42463;52.214;21.238;2023-08-06T05:14:20;20.20;;;14.50;;
56581;SDS011;42463;52.214;21.238;2023-08-06T05:16:25;18.50;;;14.50;;
56581;SDS011;42463;52.214;21.238;2023-08-06T05:18:31;16.50;;;14.30;;
56581;SDS011;42463;52.214;21.238;2023-08-06T05:20:37;16.60;;;13.40;;
56581;SDS011;42463;52.214;21.238;2023-08-06T05:22:44;16.50;;;13.40;;
56581;SDS011;42463;52.214;21.238;2023-08-06T05:24:50;17.70;;;14.20;;
56581;SDS011;42463;52.214;21.238;2023-08-06T05:26:55;19.80;;;13.70;;
56581;SDS011;42463;52.214;21.238;2023-08-06T05:29:01;19.20;;;14.70;;
56581;SDS011;42463;52.214;21.238;2023-08-06T05:31:07;16.00;;;13.70;;
56581;SDS011;42463;52.214;21.238;2023-08-06T05:33:13;15.80;;;14.00;;
56581;SDS011;42463;52.214;21.238;2023-08-06T05:35:19;17.20;;;13.30;;
56581;SDS011;42463;52.214;21.238;2023-08-06T05:37:24;21.30;;;13.10;;
56581;SDS011;42463;52.214;21.238;2023-08-06T05:39:30;17.20;;;13.90;;
56581;SDS011;42463;52.214;21.238;2023-08-06T05:41:35;17.80;;;13.50;;
56581;SDS011;42463;52.214;21.238;2023-08-06T05:43:41;14.10;;;12.70;;
56581;SDS011;42463;52.214;21.238;2023-08-06T05:45:46;15.70;;;12.60;;
56581;SDS011;42463;52.214;21.238;2023-08-06T05:47:56;13.70;;;12.00;;
56581;SDS011;42463;52.214;21.238;2023-08-06T05:50:01;15.50;;;12.50;;
56581;SDS011;42463;52.214;21.238;2023-08-06T05:52:07;15.40;;;12.00;;
56581;SDS011;42463;52.214;21.238;2023-08-06T05:54:13;14.60;;;12.30;;
56581;SDS011;42463;52.214;21.238;2023-08-06T05:56:19;14.20;;;11.60;;
56581;SDS011;42463;52.214;21.238;2023-08-06T05:58:24;14.10;;;12.50;;
56581;SDS011;42463;52.214;21.238;2023-08-06T06:00:31;14.80;;;12.30;;
56581;SDS011;42463;52.214;21.238;2023-08-06T06:02:38;19.80;;;12.00;;
56581;SDS011;42463;52.214;21.238;2023-08-06T06:04:43;12.60;;;11.30;;
56581;SDS011;42463;52.214;21.238;2023-08-06T06:06:49;14.80;;;11.80;;
56581;SDS011;42463;52.214;21.238;2023-08-06T06:08:55;12.50;;;11.20;;
56581;SDS011;42463;52.214;21.238;2023-08-06T06:11:01;15.10;;;11.60;;
56581;SDS011;42463;52.214;21.238;2023-08-06T06:13:07;13.80;;;11.50;;
56581;SDS011;42463;52.214;21.238;2023-08-06T06:15:14;14.10;;;11.90;;
56581;SDS011;42463;52.214;21.238;2023-08-06T06:17:19;12.30;;;11.10;;
56581;SDS011;42463;52.214;21.238;2023-08-06T06:19:25;17.00;;;12.30;;
56581;SDS011;42463;52.214;21.238;2023-08-06T06:21:31;17.20;;;11.60;;
56581;SDS011;42463;52.214;21.238;2023-08-06T06:23:36;13.80;;;11.60;;
56581;SDS011;42463;52.214;21.238;2023-08-06T06:25:43;13.30;;;11.90;;
56581;SDS011;42463;52.214;21.238;2023-08-06T06:27:50;13.60;;;11.30;;
56581;SDS011;42463;52.214;21.238;2023-08-06T06:29:59;13.30;;;11.40;;
56581;SDS011;42463;52.214;21.238;2023-08-06T06:32:05;13.50;;;11.10;;
56581;SDS011;42463;52.214;21.238;2023-08-06T06:34:11;15.10;;;11.20;;
56581;SDS011;42463;52.214;21.238;2023-08-06T06:36:17;12.50;;;11.30;;
56581;SDS011;42463;52.214;21.238;2023-08-06T06:38:22;12.50;;;11.30;;
56581;SDS011;42463;52.214;21.238;2023-08-06T06:40:28;15.10;;;11.60;;
56581;SDS011;42463;52.214;21.238;2023-08-06T06:42:33;13.10;;;11.30;;
56581;SDS011;42463;52.214;21.238;2023-08-06T06:44:41;13.80;;;11.00;;
56581;SDS011;42463;52.214;21.238;2023-08-06T06:46:47;13.80;;;11.50;;
56581;SDS011;42463;52.214;21.238;2023-08-06T06:48:52;12.70;;;10.50;;
56581;SDS011;42463;52.214;21.238;2023-08-06T06:50:58;15.10;;;11.50;;
56581;SDS011;42463;52.214;21.238;2023-08-06T06:53:03;13.80;;;11.20;;
56581;SDS011;42463;52.214;21.238;2023-08-06T06:55:10;13.40;;;11.10;;
56581;SDS011;42463;52.214;21.238;2023-08-06T06:57:16;11.50;;;10.40;;
56581;SDS011;42463;52.214;21.238;2023-08-06T06:59:21;11.90;;;10.60;;
56581;SDS011;42463;52.214;21.238;2023-08-06T07:01:30;14.70;;;11.10;;
56581;SDS011;42463;52.214;21.238;2023-08-06T07:03:35;12.10;;;10.30;;
56581;SDS011;42463;52.214;21.238;2023-08-06T07:05:41;14.20;;;10.80;;
56581;SDS011;42463;52.214;21.238;2023-08-06T07:07:48;14.30;;;10.60;;
56581;SDS011;42463;52.214;21.238;2023-08-06T07:09:53;12.50;;;10.70;;
56581;SDS011;42463;52.214;21.238;2023-08-06T07:11:59;14.70;;;11.10;;
56581;SDS011;42463;52.214;21.238;2023-08-06T07:14:07;12.20;;;10.60;;
56581;SDS011;42463;52.214;21.238;2023-08-06T07:16:13;12.40;;;10.70;;
56581;SDS011;42463;52.214;21.238;2023-08-06T07:18:18;17.00;;;10.80;;
56581;SDS011;42463;52.214;21.238;2023-08-06T07:20:24;12.00;;;10.20;;
56581;SDS011;42463;52.214;21.238;2023-08-06T07:22:32;17.70;;;10.50;;
56581;SDS011;42463;52.214;21.238;2023-08-06T07:24:37;14.30;;;10.30;;
56581;SDS011;42463;52.214;21.238;2023-08-06T07:26:43;13.80;;;10.40;;
56581;SDS011;42463;52.214;21.238;2023-08-06T07:28:49;12.00;;;10.60;;
56581;SDS011;42463;52.214;21.238;2023-08-06T07:30:54;13.70;;;9.90;;
56581;SDS011;42463;52.214;21.238;2023-08-06T07:33:00;13.20;;;10.20;;
56581;SDS011;42463;52.214;21.238;2023-08-06T07:35:06;13.10;;;10.70;;
56581;SDS011;42463;52.214;21.238;2023-08-06T07:37:15;13.20;;;10.20;;
56581;SDS011;42463;52.214;21.238;2023-08-06T07:39:22;12.00;;;10.30;;
56581;SDS011;42463;52.214;21.238;2023-08-06T07:41:28;11.20;;;9.90;;
56581;SDS011;42463;52.214;21.238;2023-08-06T07:43:34;13.00;;;10.40;;
56581;SDS011;42463;52.214;21.238;2023-08-06T07:45:43;11.80;;;10.30;;
56581;SDS011;42463;52.214;21.238;2023-08-06T07:47:48;12.40;;;9.80;;
56581;SDS011;42463;52.214;21.238;2023-08-06T07:49:54;12.40;;;10.30;;
56581;SDS011;42463;52.214;21.238;2023-08-06T07:51:59;16.00;;;10.60;;
56581;SDS011;42463;52.214;21.238;2023-08-06T07:54:08;14.50;;;10.30;;
56581;SDS011;42463;52.214;21.238;2023-08-06T07:56:14;11.30;;;9.20;;
56581;SDS011;42463;52.214;21.238;2023-08-06T07:58:19;11.10;;;9.90;;
56581;SDS011;42463;52.214;21.238;2023-08-06T08:00:25;10.40;;;9.30;;
56581;SDS011;42463;52.214;21.238;2023-08-06T08:02:31;10.90;;;9.80;;
56581;SDS011;42463;52.214;21.238;2023-08-06T08:04:36;12.70;;;10.00;;
56581;SDS011;42463;52.214;21.238;2023-08-06T08:06:42;14.20;;;10.60;;
56581;SDS011;42463;52.214;21.238;2023-08-06T08:08:49;11.80;;;10.10;;
56581;SDS011;42463;52.214;21.238;2023-08-06T08:10:57;11.80;;;10.60;;
56581;SDS011;42463;52.214;21.238;2023-08-06T08:13:03;10.60;;;9.30;;
56581;SDS011;42463;52.214;21.238;2023-08-06T08:15:10;13.00;;;10.10;;
56581;SDS011;42463;52.214;21.238;2023-08-06T08:17:16;13.40;;;10.00;;
56581;SDS011;42463;52.214;21.238;2023-08-06T08:19:21;13.30;;;10.00;;
56581;SDS011;42463;52.214;21.238;2023-08-06T08:21:27;11.20;;;9.40;;
56581;SDS011;42463;52.214;21.238;2023-08-06T08:23:32;10.50;;;9.00;;
56581;SDS011;42463;52.214;21.238;2023-08-06T08:25:38;10.20;;;9.20;;
56581;SDS011;42463;52.214;21.238;2023-08-06T08:27:44;10.80;;;9.20;;
56581;SDS011;42463;52.214;21.238;2023-08-06T08:29:49;10.70;;;9.60;;
56581;SDS011;42463;52.214;21.238;2023-08-06T08:31:55;11.30;;;9.30;;
56581;SDS011;42463;52.214;21.238;2023-08-06T08:34:05;12.30;;;9.60;;
56581;SDS011;42463;52.214;21.238;2023-08-06T08:36:11;12.10;;;9.20;;
56581;SDS011;42463;52.214;21.238;2023-08-06T08:38:16;11.40;;;10.20;;
56581;SDS011;42463;52.214;21.238;2023-08-06T08:40:24;10.60;;;9.50;;
56581;SDS011;42463;52.214;21.238;2023-08-06T08:42:37;9.90;;;9.00;;
56581;SDS011;42463;52.214;21.238;2023-08-06T08:44:43;12.80;;;9.10;;
56581;SDS011;42463;52.214;21.238;2023-08-06T08:46:49;11.60;;;9.80;;
56581;SDS011;42463;52.214;21.238;2023-08-06T08:48:54;10.30;;;9.30;;
56581;SDS011;42463;52.214;21.238;2023-08-06T08:51:03;10.40;;;9.10;;
56581;SDS011;42463;52.214;21.238;2023-08-06T08:53:10;10.20;;;9.10;;
56581;SDS011;42463;52.214;21.238;2023-08-06T08:55:16;13.70;;;10.00;;
56581;SDS011;42463;52.214;21.238;2023-08-06T08:57:24;11.00;;;9.90;;
56581;SDS011;42463;52.214;21.238;2023-08-06T08:59:32;11.90;;;10.10;;
56581;SDS011;42463;52.214;21.238;2023-08-06T09:01:38;10.80;;;9.20;;
56581;SDS011;42463;52.214;21.238;2023-08-06T09:03:46;12.10;;;9.00;;
56581;SDS011;42463;52.214;21.238;2023-08-06T09:05:53;10.40;;;8.80;;
56581;SDS011;42463;52.214;21.238;2023-08-06T09:08:02;10.60;;;9.50;;
56581;SDS011;42463;52.214;21.238;2023-08-06T09:10:10;11.50;;;9.60;;
56581;SDS011;42463;52.214;21.238;2023-08-06T09:12:18;11.40;;;9.20;;
56581;SDS011;42463;52.214;21.238;2023-08-06T09:14:25;14.90;;;10.30;;
56581;SDS011;42463;52.214;21.238;2023-08-06T09:16:30;11.20;;;9.60;;
56581;SDS011;42463;52.214;21.238;2023-08-06T09:18:36;12.50;;;9.50;;
56581;SDS011;42463;52.214;21.238;2023-08-06T09:20:44;11.20;;;8.80;;
56581;SDS011;42463;52.214;21.238;2023-08-06T09:22:49;10.20;;;9.20;;
56581;SDS011;42463;52.214;21.238;2023-08-06T09:24:57;9.80;;;8.80;;
56581;SDS011;42463;52.214;21.238;2023-08-06T09:27:03;11.40;;;8.30;;
56581;SDS011;42463;52.214;21.238;2023-08-06T09:29:09;10.90;;;9.00;;
56581;SDS011;42463;52.214;21.238;2023-08-06T09:31:15;11.00;;;8.70;;
56581;SDS011;42463;52.214;21.238;2023-08-06T09:33:21;9.50;;;8.10;;
56581;SDS011;42463;52.214;21.238;2023-08-06T09:35:29;11.00;;;8.70;;
56581;SDS011;42463;52.214;21.238;2023-08-06T09:37:36;9.50;;;8.60;;
56581;SDS011;42463;52.214;21.238;2023-08-06T09:39:42;10.40;;;9.00;;
56581;SDS011;42463;52.214;21.238;2023-08-06T09:41:47;9.00;;;8.20;;
56581;SDS011;42463;52.214;21.238;2023-08-06T09:43:59;8.80;;;7.90;;
56581;SDS011;42463;52.214;21.238;2023-08-06T09:46:11;11.60;;;8.70;;
56581;SDS011;42463;52.214;21.238;2023-08-06T09:48:19;9.60;;;8.30;;
56581;SDS011;42463;52.214;21.238;2023-08-06T09:50:30;9.10;;;8.20;;
56581;SDS011;42463;52.214;21.238;2023-08-06T09:52:39;11.90;;;8.30;;
56581;SDS011;42463;52.214;21.238;2023-08-06T09:54:45;10.80;;;8.70;;
56581;SDS011;42463;52.214;21.238;2023-08-06T09:56:54;9.30;;;8.30;;
56581;SDS011;42463;52.214;21.238;2023-08-06T09:59:00;11.50;;;8.50;;
56581;SDS011;42463;52.214;21.238;2023-08-06T10:01:07;9.50;;;8.50;;
56581;SDS011;42463;52.214;21.238;2023-08-06T10:03:14;8.80;;;7.80;;
56581;SDS011;42463;52.214;21.238;2023-08-06T10:05:21;9.80;;;8.30;;
56581;SDS011;42463;52.214;21.238;2023-08-06T10:07:27;9.90;;;8.00;;
56581;SDS011;42463;52.214;21.238;2023-08-06T10:09:35;11.30;;;8.40;;
56581;SDS011;42463;52.214;21.238;2023-08-06T10:11:40;9.10;;;8.00;;
56581;SDS011;42463;52.214;21.238;2023-08-06T10:13:50;9.10;;;8.20;;
56581;SDS011;42463;52.214;21.238;2023-08-06T10:16:02;9.50;;;8.00;;
56581;SDS011;42463;52.214;21.238;2023-08-06T10:18:09;18.20;;;9.00;;
56581;SDS011;42463;52.214;21.238;2023-08-06T10:20:16;22.30;;;8.50;;
56581;SDS011;42463;52.214;21.238;2023-08-06T10:22:25;9.10;;;8.00;;
56581;SDS011;42463;52.214;21.238;2023-08-06T10:24:39;9.90;;;8.10;;
56581;SDS011;42463;52.214;21.238;2023-08-06T10:26:51;11.10;;;8.20;;
56581;SDS011;42463;52.214;21.238;2023-08-06T10:29:02;9.30;;;7.50;;
56581;SDS011;42463;52.214;21.238;2023-08-06T10:34:02;8.70;;;7.80;;
56581;SDS011;42463;52.214;21.238;2023-08-06T10:36:08;9.60;;;7.90;;
56581;SDS011;42463;52.214;21.238;2023-08-06T10:38:15;9.00;;;8.10;;
56581;SDS011;42463;52.214;21.238;2023-08-06T10:40:21;8.70;;;7.90;;
56581;SDS011;42463;52.214;21.238;2023-08-06T10:42:29;9.20;;;8.30;;
56581;SDS011;42463;52.214;21.238;2023-08-06T10:44:35;9.20;;;8.30;;
56581;SDS011;42463;52.214;21.238;2023-08-06T10:46:44;9.20;;;8.30;;
56581;SDS011;42463;52.214;21.238;2023-08-06T10:48:56;11.40;;;7.70;;
56581;SDS011;42463;52.214;21.238;2023-08-06T10:51:03;8.80;;;7.80;;
56581;SDS011;42463;52.214;21.238;2023-08-06T10:53:11;8.80;;;7.40;;
56581;SDS011;42463;52.214;21.238;2023-08-06T10:55:23;9.90;;;7.50;;
56581;SDS011;42463;52.214;21.238;2023-08-06T10:57:29;9.00;;;7.50;;
56581;SDS011;42463;52.214;21.238;2023-08-06T10:59:35;8.10;;;7.30;;
56581;SDS011;42463;52.214;21.238;2023-08-06T11:01:40;8.40;;;7.60;;
56581;SDS011;42463;52.214;21.238;2023-08-06T11:03:46;8.40;;;7.10;;
56581;SDS011;42463;52.214;21.238;2023-08-06T11:05:53;9.00;;;8.00;;
56581;SDS011;42463;52.214;21.238;2023-08-06T11:07:59;8.20;;;7.10;;
56581;SDS011;42463;52.214;21.238;2023-08-06T11:10:07;9.10;;;7.40;;
56581;SDS011;42463;52.214;21.238;2023-08-06T11:12:17;11.10;;;7.60;;
56581;SDS011;42463;52.214;21.238;2023-08-06T11:14:23;9.70;;;7.30;;
56581;SDS011;42463;52.214;21.238;2023-08-06T11:16:29;8.30;;;6.90;;
56581;SDS011;42463;52.214;21.238;2023-08-06T11:18:34;9.00;;;7.80;;
56581;SDS011;42463;52.214;21.238;2023-08-06T11:20:40;8.20;;;7.30;;
56581;SDS011;42463;52.214;21.238;2023-08-06T11:22:46;8.70;;;7.50;;
56581;SDS011;42463;52.214;21.238;2023-08-06T11:24:52;8.00;;;7.20;;
56581;SDS011;42463;52.214;21.238;2023-08-06T11:26:58;10.20;;;7.30;;
56581;SDS011;42463;52.214;21.238;2023-08-06T11:29:04;10.40;;;7.80;;
56581;SDS011;42463;52.214;21.238;2023-08-06T11:31:19;7.80;;;7.10;;
56581;SDS011;42463;52.214;21.238;2023-08-06T11:33:25;13.20;;;7.30;;
56581;SDS011;42463;52.214;21.238;2023-08-06T11:35:31;13.60;;;7.30;;
56581;SDS011;42463;52.214;21.238;2023-08-06T11:37:39;9.60;;;7.10;;
56581;SDS011;42463;52.214;21.238;2023-08-06T11:39:49;7.80;;;6.90;;
56581;SDS011;42463;52.214;21.238;2023-08-06T11:41:55;9.50;;;7.30;;
56581;SDS011;42463;52.214;21.238;2023-08-06T11:44:03;7.80;;;7.10;;
56581;SDS011;42463;52.214;21.238;2023-08-06T11:46:09;8.30;;;7.50;;
56581;SDS011;42463;52.214;21.238;2023-08-06T11:48:14;8.50;;;7.60;;
56581;SDS011;42463;52.214;21.238;2023-08-06T11:50:24;9.00;;;7.40;;
56581;SDS011;42463;52.214;21.238;2023-08-06T11:52:31;8.90;;;7.30;;
56581;SDS011;42463;52.214;21.238;2023-08-06T11:54:37;8.40;;;7.50;;
56581;SDS011;42463;52.214;21.238;2023-08-06T11:56:43;8.10;;;7.40;;
56581;SDS011;42463;52.214;21.238;2023-08-06T11:58:51;8.80;;;7.30;;
56581;SDS011;42463;52.214;21.238;2023-08-06T12:00:57;8.50;;;7.80;;
56581;SDS011;42463;52.214;21.238;2023-08-06T12:03:04;8.40;;;7.70;;
56581;SDS011;42463;52.214;21.238;2023-08-06T12:05:13;8.90;;;8.00;;
56581;SDS011;42463;52.214;21.238;2023-08-06T12:07:20;7.90;;;7.00;;
56581;SDS011;42463;52.214;21.238;2023-08-06T12:09:32;7.80;;;7.00;;
56581;SDS011;42463;52.214;21.238;2023-08-06T12:11:38;10.60;;;8.90;;
56581;SDS011;42463;52.214;21.238;2023-08-06T12:13:44;9.40;;;7.30;;
56581;SDS011;42463;52.214;21.238;2023-08-06T12:15:55;10.30;;;7.80;;
56581;SDS011;42463;52.214;21.238;2023-08-06T12:18:00;8.30;;;7.60;;
56581;SDS011;42463;52.214;21.238;2023-08-06T12:20:07;10.20;;;8.40;;
56581;SDS011;42463;52.214;21.238;2023-08-06T12:22:15;9.00;;;8.00;;